createdAt,value
2019-01-20T00:00:30.475Z,45.40
2019-01-20T00:02:58.067Z,45.30
2019-01-20T00:05:25.879Z,45.30
2019-01-20T00:07:53.436Z,45.20
2019-01-20T00:10:21.023Z,45.40
2019-01-20T00:12:48.544Z,45.20
2019-01-20T00:15:19.878Z,45.10
2019-01-20T00:17:47.413Z,45.40
2019-01-20T00:20:15.027Z,45.00
2019-01-20T00:22:42.640Z,44.90
2019-01-20T00:25:10.377Z,45.30
2019-01-20T00:27:38.034Z,45.00
2019-01-20T00:30:07.270Z,45.00
2019-01-20T00:32:34.815Z,45.70
2019-01-20T00:35:02.402Z,45.10
2019-01-20T00:37:29.936Z,45.10
2019-01-20T00:39:57.474Z,45.10
2019-01-20T00:42:24.995Z,45.00
2019-01-20T00:44:52.525Z,45.00
2019-01-20T00:47:20.099Z,45.40
2019-01-20T00:49:47.689Z,45.00
2019-01-20T00:52:15.229Z,44.90
2019-01-20T00:54:42.742Z,45.00
2019-01-20T00:57:10.369Z,44.90
2019-01-20T00:59:37.998Z,45.00
2019-01-20T01:02:05.736Z,45.00
2019-01-20T01:04:33.280Z,45.00
2019-01-20T01:07:00.886Z,44.90
2019-01-20T01:09:28.403Z,44.80
2019-01-20T01:11:55.994Z,44.80
2019-01-20T01:14:23.522Z,44.70
2019-01-20T01:16:51.051Z,44.80
2019-01-20T01:19:18.585Z,44.80
2019-01-20T01:21:46.123Z,44.80
2019-01-20T01:24:13.654Z,44.70
2019-01-20T01:26:41.182Z,44.80
2019-01-20T01:29:09.103Z,44.80
2019-01-20T01:31:36.633Z,44.80
2019-01-20T01:34:04.163Z,44.90
2019-01-20T01:36:31.683Z,44.90
2019-01-20T01:38:59.222Z,44.90
2019-01-20T01:41:26.738Z,44.90
2019-01-20T01:43:54.269Z,44.80
2019-01-20T01:46:21.799Z,44.90
2019-01-20T01:48:49.336Z,44.80
2019-01-20T01:51:16.958Z,44.90
2019-01-20T01:53:44.516Z,45.00
2019-01-20T01:56:12.052Z,44.90
2019-01-20T01:58:39.604Z,44.80
2019-01-20T02:01:07.217Z,44.70
2019-01-20T02:03:34.812Z,44.70
2019-01-20T02:06:02.354Z,44.70
2019-01-20T02:08:29.883Z,44.80
2019-01-20T02:10:57.417Z,44.80
2019-01-20T02:13:24.937Z,44.70
2019-01-20T02:15:52.475Z,44.70
2019-01-20T02:18:20.000Z,44.80
2019-01-20T02:20:47.538Z,44.60
2019-01-20T02:23:15.069Z,44.60
2019-01-20T02:25:42.705Z,44.60
2019-01-20T02:28:10.645Z,44.50
2019-01-20T02:30:38.177Z,44.50
2019-01-20T02:33:05.778Z,44.50
2019-01-20T02:35:33.313Z,44.60
2019-01-20T02:38:00.842Z,44.60
2019-01-20T02:40:28.380Z,44.60
2019-01-20T02:42:55.900Z,44.70
2019-01-20T02:45:23.875Z,44.60
2019-01-20T02:47:51.398Z,44.60
2019-01-20T02:50:18.940Z,44.50
2019-01-20T02:52:46.485Z,44.60
2019-01-20T02:55:14.094Z,44.60
2019-01-20T02:57:41.631Z,44.50
2019-01-20T03:00:13.899Z,44.50
2019-01-20T03:02:41.578Z,44.50
2019-01-20T03:05:10.177Z,44.40
2019-01-20T03:07:37.710Z,44.40
2019-01-20T03:10:06.806Z,44.60
2019-01-20T03:12:34.429Z,44.50
2019-01-20T03:15:02.025Z,44.50
2019-01-20T03:17:29.556Z,44.50
2019-01-20T03:19:57.079Z,44.50
2019-01-20T03:22:24.620Z,44.40
2019-01-20T03:24:52.150Z,44.40
2019-01-20T03:27:19.688Z,44.40
2019-01-20T03:29:47.283Z,44.20
2019-01-20T03:32:14.811Z,44.20
2019-01-20T03:34:42.436Z,44.40
2019-01-20T03:37:10.042Z,44.30
2019-01-20T03:39:37.649Z,44.40
2019-01-20T03:42:11.727Z,44.50
2019-01-20T03:44:34.479Z,44.50
2019-01-20T03:47:02.169Z,44.50
2019-01-20T03:49:29.785Z,44.50
2019-01-20T03:51:57.317Z,44.40
2019-01-20T03:54:24.837Z,44.40
2019-01-20T03:56:52.362Z,44.40
2019-01-20T03:59:19.896Z,44.40
2019-01-20T04:01:47.416Z,44.30
2019-01-20T04:04:14.986Z,44.20
2019-01-20T04:06:42.556Z,44.30
2019-01-20T04:09:10.085Z,44.90
2019-01-20T04:11:37.628Z,44.40
2019-01-20T04:14:05.283Z,44.90
2019-01-20T04:16:32.834Z,44.40
2019-01-20T04:19:00.376Z,44.30
2019-01-20T04:21:27.908Z,44.30
2019-01-20T04:23:55.442Z,44.30
2019-01-20T04:26:22.988Z,44.30
2019-01-20T04:28:50.685Z,44.20
2019-01-20T04:31:18.287Z,44.20
2019-01-20T04:33:45.887Z,44.40
2019-01-20T04:36:13.419Z,44.30
2019-01-20T04:38:41.033Z,44.90
2019-01-20T04:41:08.596Z,44.20
2019-01-20T04:43:36.136Z,44.30
2019-01-20T04:46:03.661Z,44.30
2019-01-20T04:48:31.216Z,44.40
2019-01-20T04:50:58.748Z,44.20
2019-01-20T04:53:27.328Z,44.30
2019-01-20T04:55:54.939Z,44.30
2019-01-20T04:58:24.072Z,44.20
2019-01-20T05:00:51.807Z,44.10
2019-01-20T05:03:19.329Z,44.10
2019-01-20T05:05:46.862Z,44.10
2019-01-20T05:08:14.392Z,44.10
2019-01-20T05:10:41.918Z,44.00
2019-01-20T05:13:09.450Z,44.10
2019-01-20T05:15:36.976Z,44.00
2019-01-20T05:18:04.780Z,44.10
2019-01-20T05:20:32.343Z,44.10
2019-01-20T05:22:59.875Z,44.10
2019-01-20T05:25:27.485Z,44.00
2019-01-20T05:27:55.349Z,44.10
2019-01-20T05:30:23.720Z,44.00
2019-01-20T05:32:51.599Z,44.10
2019-01-20T05:35:19.214Z,44.00
2019-01-20T05:37:46.822Z,43.90
2019-01-20T05:40:18.116Z,44.00
2019-01-20T05:42:46.652Z,44.10
2019-01-20T05:45:21.367Z,44.20
2019-01-20T05:47:49.154Z,44.20
2019-01-20T05:50:16.717Z,44.10
2019-01-20T05:52:44.352Z,44.20
2019-01-20T05:55:12.567Z,44.10
2019-01-20T05:57:40.161Z,44.10
2019-01-20T06:00:09.323Z,44.10
2019-01-20T06:02:36.864Z,44.10
2019-01-20T06:05:04.866Z,44.00
2019-01-20T06:07:32.411Z,44.00
2019-01-20T06:09:59.946Z,44.10
2019-01-20T06:12:27.482Z,44.00
2019-01-20T06:14:55.015Z,44.50
2019-01-20T06:17:22.633Z,43.90
2019-01-20T06:19:50.787Z,44.00
2019-01-20T06:22:18.329Z,44.00
2019-01-20T06:24:45.857Z,44.00
2019-01-20T06:27:13.447Z,44.00
2019-01-20T06:29:40.980Z,44.00
2019-01-20T06:32:08.635Z,43.90
2019-01-20T06:34:36.564Z,43.90
2019-01-20T06:37:04.099Z,43.90
2019-01-20T06:39:31.783Z,43.90
2019-01-20T06:41:59.380Z,43.90
2019-01-20T06:44:26.917Z,43.80
2019-01-20T06:46:54.489Z,43.80
2019-01-20T06:49:22.016Z,43.90
2019-01-20T06:51:49.542Z,43.80
2019-01-20T06:54:17.080Z,44.00
2019-01-20T06:56:45.589Z,44.00
2019-01-20T06:59:13.137Z,43.90
2019-01-20T07:01:40.668Z,43.70
2019-01-20T07:04:08.206Z,44.00
2019-01-20T07:06:35.735Z,43.80
2019-01-20T07:09:04.146Z,43.80
2019-01-20T07:11:31.673Z,43.70
2019-01-20T07:13:59.215Z,43.50
2019-01-20T07:16:26.763Z,43.70
2019-01-20T07:18:54.306Z,44.40
2019-01-20T07:21:21.847Z,43.80
2019-01-20T07:23:49.386Z,43.70
2019-01-20T07:26:16.914Z,43.80
2019-01-20T07:28:44.444Z,43.80
2019-01-20T07:31:12.004Z,43.90
2019-01-20T07:33:39.618Z,43.80
2019-01-20T07:36:07.218Z,43.90
2019-01-20T07:38:35.102Z,43.70
2019-01-20T07:41:02.683Z,43.40
2019-01-20T07:43:30.492Z,43.40
2019-01-20T07:45:58.022Z,43.40
2019-01-20T07:48:25.545Z,43.40
2019-01-20T07:50:53.081Z,43.50
2019-01-20T07:53:20.619Z,43.50
2019-01-20T07:55:48.143Z,43.60
2019-01-20T07:58:15.682Z,43.50
2019-01-20T08:00:43.385Z,43.80
2019-01-20T08:03:10.904Z,43.80
2019-01-20T08:05:38.502Z,43.80
2019-01-20T08:08:06.210Z,43.80
2019-01-20T08:10:33.740Z,43.70
2019-01-20T08:13:02.839Z,43.70
2019-01-20T08:15:30.367Z,43.60
2019-01-20T08:17:57.964Z,43.60
2019-01-20T08:20:25.494Z,43.70
2019-01-20T08:22:53.115Z,43.70
2019-01-20T08:25:20.937Z,43.90
2019-01-20T08:27:48.470Z,43.80
2019-01-20T08:30:16.970Z,43.70
2019-01-20T08:32:44.518Z,43.70
2019-01-20T08:35:12.559Z,43.70
2019-01-20T08:37:40.078Z,43.90
2019-01-20T08:40:09.413Z,44.00
2019-01-20T08:42:36.978Z,44.40
2019-01-20T08:45:06.177Z,44.70
2019-01-20T08:47:33.698Z,45.50
2019-01-20T08:50:01.243Z,45.60
2019-01-20T08:52:28.845Z,46.40
2019-01-20T08:54:57.380Z,46.40
2019-01-20T08:57:24.996Z,46.50
2019-01-20T08:59:52.541Z,46.70
2019-01-20T09:02:20.284Z,46.90
2019-01-20T09:04:47.812Z,47.10
2019-01-20T09:07:15.394Z,47.50
2019-01-20T09:09:43.019Z,47.60
2019-01-20T09:12:10.636Z,47.60
2019-01-20T09:14:38.200Z,48.20
2019-01-20T09:17:06.204Z,47.70
2019-01-20T09:19:33.737Z,47.60
2019-01-20T09:22:01.272Z,47.90
2019-01-20T09:24:28.890Z,48.30
2019-01-20T09:26:56.505Z,48.00
2019-01-20T09:29:24.050Z,48.30
2019-01-20T09:31:51.605Z,48.60
2019-01-20T09:34:19.233Z,48.60
2019-01-20T09:36:46.754Z,48.70
2019-01-20T09:39:14.571Z,48.80
2019-01-20T09:41:42.162Z,48.90
2019-01-20T09:44:09.702Z,48.90
2019-01-20T09:46:37.236Z,48.90
2019-01-20T09:49:04.782Z,48.90
2019-01-20T09:51:32.429Z,48.90
2019-01-20T09:54:00.804Z,48.90
2019-01-20T09:56:28.519Z,49.10
2019-01-20T09:58:56.056Z,49.20
2019-01-20T10:01:23.581Z,49.40
2019-01-20T10:03:51.123Z,49.40
2019-01-20T10:06:18.724Z,49.40
2019-01-20T10:08:46.602Z,49.40
2019-01-20T10:11:14.136Z,49.30
2019-01-20T10:13:41.666Z,49.60
2019-01-20T10:16:09.363Z,49.70
2019-01-20T10:18:36.996Z,49.50
2019-01-20T10:21:04.526Z,49.50
2019-01-20T10:23:32.051Z,49.60
2019-01-20T10:25:59.587Z,49.50
2019-01-20T10:28:27.199Z,49.40
2019-01-20T10:30:54.757Z,49.30
2019-01-20T10:33:22.317Z,49.30
2019-01-20T10:35:51.481Z,49.50
2019-01-20T10:38:20.089Z,49.70
2019-01-20T10:40:47.616Z,49.50
2019-01-20T10:43:15.222Z,50.00
2019-01-20T10:45:42.832Z,49.80
2019-01-20T10:48:10.447Z,49.80
2019-01-20T10:50:38.049Z,50.10
2019-01-20T10:53:05.596Z,50.40
2019-01-20T10:55:33.158Z,50.30
2019-01-20T10:58:00.683Z,50.20
2019-01-20T11:00:30.061Z,50.20
2019-01-20T11:02:57.664Z,50.10
2019-01-20T11:05:30.330Z,50.20
2019-01-20T11:07:54.513Z,50.20
2019-01-20T11:10:22.346Z,50.00
2019-01-20T11:12:49.937Z,50.00
2019-01-20T11:15:17.462Z,50.00
2019-01-20T11:17:44.993Z,50.10
2019-01-20T11:20:16.410Z,50.10
2019-01-20T11:22:43.926Z,50.20
2019-01-20T11:25:12.831Z,50.00
2019-01-20T11:27:40.362Z,50.10
2019-01-20T11:30:09.266Z,50.10
2019-01-20T11:32:42.279Z,50.10
2019-01-20T11:35:08.031Z,50.20
2019-01-20T11:37:35.569Z,50.20
2019-01-20T11:40:03.943Z,50.20
2019-01-20T11:42:31.546Z,50.20
2019-01-20T11:44:59.167Z,50.20
2019-01-20T11:47:26.778Z,50.20
2019-01-20T11:49:54.297Z,50.20
2019-01-20T11:52:21.820Z,50.20
2019-01-20T11:54:49.333Z,50.30
2019-01-20T11:57:16.877Z,50.40
2019-01-20T11:59:44.401Z,51.00
2019-01-20T12:02:13.273Z,50.30
2019-01-20T12:04:40.803Z,50.40
2019-01-20T12:07:08.388Z,50.30
2019-01-20T12:09:36.090Z,50.10
2019-01-20T12:12:03.637Z,50.30
2019-01-20T12:14:31.174Z,50.20
2019-01-20T12:16:59.205Z,50.20
2019-01-20T12:19:26.949Z,50.30
2019-01-20T12:21:54.585Z,50.40
2019-01-20T12:24:22.196Z,50.30
2019-01-20T12:26:49.863Z,50.30
2019-01-20T12:29:17.521Z,50.20
2019-01-20T12:31:45.195Z,50.40
2019-01-20T12:34:12.794Z,50.50
2019-01-20T12:36:40.465Z,50.70
2019-01-20T12:39:08.635Z,50.70
2019-01-20T12:41:36.162Z,50.90
2019-01-20T12:44:03.987Z,50.80
2019-01-20T12:46:31.515Z,50.90
2019-01-20T12:49:00.278Z,50.80
2019-01-20T12:51:28.698Z,50.90
2019-01-20T12:53:56.405Z,50.90
2019-01-20T12:56:23.936Z,51.00
2019-01-20T12:58:51.504Z,51.00
2019-01-20T13:01:19.037Z,51.00
2019-01-20T13:03:46.571Z,51.10
2019-01-20T13:06:14.148Z,51.30
2019-01-20T13:08:41.749Z,51.20
2019-01-20T13:11:09.265Z,51.20
2019-01-20T13:13:36.804Z,51.20
2019-01-20T13:16:04.316Z,51.30
2019-01-20T13:18:31.871Z,51.40
2019-01-20T13:20:59.835Z,51.30
2019-01-20T13:23:27.363Z,51.30
2019-01-20T13:25:54.988Z,51.30
2019-01-20T13:28:22.531Z,51.30
2019-01-20T13:30:50.054Z,51.30
2019-01-20T13:33:17.932Z,51.00
2019-01-20T13:35:45.557Z,50.80
2019-01-20T13:38:13.100Z,51.20
2019-01-20T13:40:42.101Z,51.10
2019-01-20T13:43:09.630Z,51.20
2019-01-20T13:45:37.151Z,51.10
2019-01-20T13:48:04.693Z,51.30
2019-01-20T13:50:32.310Z,51.30
2019-01-20T13:52:59.900Z,51.30
2019-01-20T13:55:27.447Z,51.30
2019-01-20T13:57:54.997Z,51.30
2019-01-20T14:02:32.374Z,51.70
2019-01-20T14:04:59.911Z,51.70
2019-01-20T14:07:27.440Z,51.90
2019-01-20T14:09:54.987Z,51.80
2019-01-20T14:12:22.523Z,51.70
2019-01-20T14:14:53.870Z,51.70
2019-01-20T14:17:19.685Z,51.70
2019-01-20T14:19:47.261Z,51.70
2019-01-20T14:22:14.827Z,51.60
2019-01-20T14:24:42.599Z,51.50
2019-01-20T14:27:10.164Z,51.40
2019-01-20T14:29:37.731Z,51.40
2019-01-20T14:32:05.311Z,51.30
2019-01-20T14:34:32.917Z,51.40
2019-01-20T14:37:00.450Z,51.30
2019-01-20T14:39:27.991Z,51.30
2019-01-20T14:41:55.525Z,51.30
2019-01-20T14:44:23.051Z,51.30
2019-01-20T14:46:50.586Z,51.30
2019-01-20T14:49:18.111Z,51.20
2019-01-20T14:51:45.640Z,51.20
2019-01-20T14:54:13.159Z,51.20
2019-01-20T14:56:43.726Z,51.20
2019-01-20T14:59:11.408Z,51.10
2019-01-20T15:01:38.964Z,51.10
2019-01-20T15:04:06.502Z,51.00
2019-01-20T15:06:34.377Z,51.00
2019-01-20T15:09:01.905Z,51.00
2019-01-20T15:11:29.435Z,51.00
2019-01-20T15:13:56.972Z,51.10
2019-01-20T15:16:24.539Z,51.10
2019-01-20T15:18:53.143Z,51.10
2019-01-20T15:21:20.726Z,51.10
2019-01-20T15:23:48.295Z,51.10
2019-01-20T15:26:15.971Z,51.10
2019-01-20T15:28:43.489Z,51.00
2019-01-20T15:31:11.035Z,50.80
2019-01-20T15:33:38.560Z,50.90
2019-01-20T15:36:06.085Z,50.80
2019-01-20T15:38:33.617Z,50.90
2019-01-20T15:41:01.145Z,50.80
2019-01-20T15:43:28.679Z,50.80
2019-01-20T15:45:56.203Z,50.80
2019-01-20T15:48:24.117Z,51.00
2019-01-20T15:50:51.656Z,51.00
2019-01-20T15:53:19.256Z,50.80
2019-01-20T15:55:46.914Z,50.70
2019-01-20T15:58:14.613Z,50.60
2019-01-20T16:00:42.188Z,50.60
2019-01-20T16:03:09.725Z,50.50
2019-01-20T16:05:37.261Z,50.60
2019-01-20T16:08:04.799Z,50.60
2019-01-20T16:10:32.394Z,50.50
2019-01-20T16:12:59.928Z,50.50
2019-01-20T16:15:31.918Z,50.40
2019-01-20T16:17:59.454Z,50.40
2019-01-20T16:20:27.256Z,50.40
2019-01-20T16:22:54.838Z,50.30
2019-01-20T16:25:24.313Z,50.40
2019-01-20T16:27:51.932Z,50.40
2019-01-20T16:30:20.949Z,50.40
2019-01-20T16:32:48.543Z,50.40
2019-01-20T16:35:16.077Z,50.40
2019-01-20T16:37:43.819Z,50.40
2019-01-20T16:40:13.195Z,50.40
2019-01-20T16:42:40.729Z,50.30
2019-01-20T16:45:10.123Z,50.10
2019-01-20T16:47:41.130Z,50.10
2019-01-20T16:50:17.630Z,50.10
2019-01-20T16:52:45.392Z,50.10
2019-01-20T16:55:13.306Z,50.10
2019-01-20T16:57:42.248Z,50.10
2019-01-20T17:00:11.501Z,50.10
2019-01-20T17:02:39.027Z,50.10
2019-01-20T17:05:07.924Z,50.10
2019-01-20T17:07:35.452Z,50.10
2019-01-20T17:10:04.175Z,50.10
2019-01-20T17:12:31.802Z,49.90
2019-01-20T17:14:59.359Z,49.90
2019-01-20T17:17:26.878Z,49.80
2019-01-20T17:19:54.428Z,49.80
2019-01-20T17:22:21.963Z,49.80
2019-01-20T17:24:49.589Z,49.80
2019-01-20T17:27:17.196Z,49.70
2019-01-20T17:29:44.719Z,49.80
2019-01-20T17:32:12.267Z,49.60
2019-01-20T17:34:39.805Z,49.50
2019-01-20T17:37:07.416Z,49.50
2019-01-20T17:39:34.943Z,49.70
2019-01-20T17:42:02.471Z,49.80
2019-01-20T17:44:30.010Z,49.70
2019-01-20T17:46:57.535Z,49.70
2019-01-20T17:49:25.108Z,49.70
2019-01-20T17:51:52.646Z,49.70
2019-01-20T17:54:20.249Z,49.60
2019-01-20T17:56:47.843Z,49.60
2019-01-20T17:59:15.455Z,49.50
2019-01-20T18:01:42.988Z,49.40
2019-01-20T18:04:10.524Z,49.40
2019-01-20T18:06:38.061Z,49.40
2019-01-20T18:09:07.797Z,49.40
2019-01-20T18:11:35.342Z,49.40
2019-01-20T18:14:02.879Z,49.40
2019-01-20T18:16:30.427Z,49.40
2019-01-20T18:19:01.013Z,49.40
2019-01-20T18:21:28.707Z,49.30
2019-01-20T18:23:56.252Z,49.30
2019-01-20T18:26:23.859Z,49.20
2019-01-20T18:28:51.392Z,49.30
2019-01-20T18:31:18.961Z,49.20
2019-01-20T18:33:46.669Z,49.20
2019-01-20T18:36:14.190Z,49.40
2019-01-20T18:38:41.711Z,49.80
2019-01-20T18:41:09.267Z,49.80
2019-01-20T18:43:36.806Z,50.10
2019-01-20T18:46:04.904Z,50.10
2019-01-20T18:48:32.444Z,50.30
2019-01-20T18:50:59.982Z,50.30
2019-01-20T18:53:27.863Z,50.40
2019-01-20T18:55:55.456Z,50.50
2019-01-20T18:58:23.158Z,50.70
2019-01-20T19:00:50.692Z,50.80
2019-01-20T19:03:18.289Z,50.80
2019-01-20T19:05:47.726Z,50.80
2019-01-20T19:08:15.277Z,50.80
2019-01-20T19:10:42.820Z,50.80
2019-01-20T19:13:10.557Z,50.80
2019-01-20T19:15:38.132Z,50.80
2019-01-20T19:18:05.669Z,50.80
2019-01-20T19:20:33.518Z,50.90
2019-01-20T19:23:01.141Z,50.80
2019-01-20T19:25:28.715Z,51.50
2019-01-20T19:27:56.277Z,51.00
2019-01-20T19:30:31.086Z,50.80
2019-01-20T19:32:58.958Z,50.70
2019-01-20T19:35:28.378Z,51.30
2019-01-20T19:37:56.611Z,50.70
2019-01-20T19:40:24.215Z,50.60
2019-01-20T19:42:51.734Z,50.60
2019-01-20T19:45:19.980Z,50.60
2019-01-20T19:47:47.627Z,50.60
2019-01-20T19:50:16.045Z,50.60
2019-01-20T19:52:43.774Z,50.60
2019-01-20T19:55:12.958Z,50.60
2019-01-20T19:57:40.886Z,50.60
2019-01-20T20:00:10.315Z,50.60
2019-01-20T20:02:38.119Z,50.60
2019-01-20T20:05:07.448Z,50.50
2019-01-20T20:07:35.027Z,50.60
2019-01-20T20:10:02.640Z,50.50
2019-01-20T20:12:30.158Z,50.10
2019-01-20T20:14:58.735Z,50.50
2019-01-20T20:17:26.284Z,50.40
2019-01-20T20:19:54.063Z,50.50
2019-01-20T20:22:21.632Z,50.30
2019-01-20T20:24:49.930Z,50.40
2019-01-20T20:27:17.591Z,50.50
2019-01-20T20:29:46.292Z,50.30
2019-01-20T20:32:13.916Z,50.30
2019-01-20T20:34:41.524Z,50.20
2019-01-20T20:37:09.156Z,50.30
2019-01-20T20:39:36.891Z,50.30
2019-01-20T20:42:04.539Z,50.30
2019-01-20T20:44:32.320Z,50.20
2019-01-20T20:47:00.381Z,50.20
2019-01-20T20:49:28.093Z,50.20
2019-01-20T20:51:55.838Z,50.30
2019-01-20T20:54:23.897Z,50.20
2019-01-20T20:56:51.477Z,50.20
2019-01-20T20:59:19.188Z,50.20
2019-01-20T21:01:46.862Z,50.20
2019-01-20T21:04:14.523Z,50.20
2019-01-20T21:06:42.319Z,50.00
2019-01-20T21:09:09.961Z,50.00
2019-01-20T21:11:37.591Z,50.20
2019-01-20T21:14:05.155Z,50.20
2019-01-20T21:16:37.826Z,50.30
2019-01-20T21:19:02.805Z,50.40
2019-01-20T21:21:30.473Z,50.30
2019-01-20T21:23:58.005Z,50.30
2019-01-20T21:26:25.870Z,50.20
2019-01-20T21:28:53.392Z,50.30
2019-01-20T21:31:20.930Z,50.20
2019-01-20T21:33:48.747Z,50.00
2019-01-20T21:36:16.905Z,49.90
2019-01-20T21:38:44.438Z,50.00
2019-01-20T21:41:12.723Z,49.90
2019-01-20T21:43:40.621Z,49.90
2019-01-20T21:46:08.217Z,50.00
2019-01-20T21:48:36.352Z,50.00
2019-01-20T21:51:03.973Z,50.70
2019-01-20T21:53:31.562Z,49.90
2019-01-20T21:55:59.328Z,49.90
2019-01-20T21:58:27.307Z,49.90
2019-01-20T22:00:56.261Z,49.90
2019-01-20T22:03:23.860Z,49.90
2019-01-20T22:05:53.401Z,50.40
2019-01-20T22:08:20.751Z,49.90
2019-01-20T22:10:48.843Z,49.90
2019-01-20T22:13:16.445Z,49.80
2019-01-20T22:15:44.622Z,49.80
2019-01-20T22:18:12.152Z,49.70
2019-01-20T22:20:39.680Z,49.70
2019-01-20T22:23:07.218Z,49.70
2019-01-20T22:25:34.758Z,49.80
2019-01-20T22:28:02.284Z,50.30
2019-01-20T22:30:29.819Z,49.70
2019-01-20T22:32:57.348Z,49.70
2019-01-20T22:35:24.882Z,49.70
2019-01-20T22:37:52.440Z,49.60
2019-01-20T22:40:20.025Z,49.60
2019-01-20T22:42:47.638Z,49.60
2019-01-20T22:45:16.331Z,49.40
2019-01-20T22:47:43.880Z,49.40
2019-01-20T22:50:12.272Z,49.20
2019-01-20T22:52:39.856Z,49.30
2019-01-20T22:55:08.813Z,49.30
2019-01-20T22:57:36.464Z,49.20
2019-01-20T23:00:05.612Z,49.30
2019-01-20T23:02:33.145Z,49.30
2019-01-20T23:05:00.680Z,49.20
2019-01-20T23:07:28.203Z,49.10
2019-01-20T23:09:55.736Z,49.20
2019-01-20T23:12:23.263Z,49.10
2019-01-20T23:14:50.801Z,49.20
2019-01-20T23:17:18.344Z,49.10
2019-01-20T23:19:45.880Z,49.00
2019-01-20T23:22:13.410Z,48.90
2019-01-20T23:24:41.006Z,48.90
2019-01-20T23:27:08.525Z,48.90
2019-01-20T23:29:36.093Z,49.00
2019-01-20T23:32:03.628Z,49.10
2019-01-20T23:34:31.195Z,49.10
2019-01-20T23:36:58.713Z,49.20
2019-01-20T23:39:26.272Z,49.10
2019-01-20T23:41:53.882Z,49.10
2019-01-20T23:44:21.488Z,49.10
2019-01-20T23:46:49.017Z,49.00
2019-01-20T23:49:16.555Z,49.00
2019-01-20T23:51:44.114Z,49.00
2019-01-20T23:54:11.702Z,48.90
2019-01-20T23:56:39.227Z,48.80
2019-01-20T23:59:06.781Z,48.70
